sensor_id;sensor_type;location;lat;lon;timestamp;temperature;humidity
7588;DHT22;3835;48.850;8.938;2024-01-15T00:02:07;-2.40;99.90
7588;DHT22;3835;48.850;8.938;2024-01-15T00:04:36;-2.50;99.90
7588;DHT22;3835;48.850;8.938;2024-01-15T00:07:05;-2.50;99.90
7588;DHT22;3835;48.850;8.938;2024-01-15T00:09:32;-2.50;99.90
7588;DHT22;3835;48.850;8.938;2024-01-15T00:12:00;-2.60;99.90
7588;DHT22;3835;48.850;8.938;2024-01-15T00:14:27;-2.60;99.90
7588;DHT22;3835;48.850;8.938;2024-01-15T00:16:54;-2.60;99.90
7588;DHT22;3835;48.850;8.938;2024-01-15T00:19:21;-2.00;99.90
7588;DHT22;3835;48.850;8.938;2024-01-15T00:21:49;-2.60;99.90
7588;DHT22;3835;48.850;8.938;2024-01-15T00:24:17;-1.90;99.90
7588;DHT22;3835;48.850;8.938;2024-01-15T00:26:45;-2.50;99.90
7588;DHT22;3835;48.850;8.938;2024-01-15T00:29:11;-2.40;99.90
7588;DHT22;3835;48.850;8.938;2024-01-15T00:31:38;-2.40;99.90
7588;DHT22;3835;48.850;8.938;2024-01-15T00:34:05;-2.30;99.90
7588;DHT22;3835;48.850;8.938;2024-01-15T00:36:32;-2.30;99.90
7588;DHT22;3835;48.850;8.938;2024-01-15T00:38:59;-2.30;99.90
7588;DHT22;3835;48.850;8.938;2024-01-15T00:41:27;-2.30;99.90
7588;DHT22;3835;48.850;8.938;2024-01-15T00:43:54;-2.30;99.90
7588;DHT22;3835;48.850;8.938;2024-01-15T00:46:21;-2.30;99.90
7588;DHT22;3835;48.850;8.938;2024-01-15T00:48:47;-2.30;99.90
7588;DHT22;3835;48.850;8.938;2024-01-15T00:51:14;-2.30;99.90
7588;DHT22;3835;48.850;8.938;2024-01-15T00:53:41;-2.20;99.90
7588;DHT22;3835;48.850;8.938;2024-01-15T00:56:08;-1.60;99.90
7588;DHT22;3835;48.850;8.938;2024-01-15T00:58:36;-2.20;99.90
7588;DHT22;3835;48.850;8.938;2024-01-15T01:01:03;-2.10;99.90
7588;DHT22;3835;48.850;8.938;2024-01-15T01:03:30;-2.10;99.90
7588;DHT22;3835;48.850;8.938;2024-01-15T01:05:57;-2.10;99.90
7588;DHT22;3835;48.850;8.938;2024-01-15T01:08:24;-2.10;99.90
7588;DHT22;3835;48.850;8.938;2024-01-15T01:10:50;-2.10;99.90
7588;DHT22;3835;48.850;8.938;2024-01-15T01:13:17;-2.00;99.90
7588;DHT22;3835;48.850;8.938;2024-01-15T01:15:45;-2.00;99.90
7588;DHT22;3835;48.850;8.938;2024-01-15T01:18:12;-2.00;99.90
7588;DHT22;3835;48.850;8.938;2024-01-15T01:20:39;-2.00;99.90
7588;DHT22;3835;48.850;8.938;2024-01-15T01:23:06;-2.00;99.90
7588;DHT22;3835;48.850;8.938;2024-01-15T01:25:33;-2.00;99.90
7588;DHT22;3835;48.850;8.938;2024-01-15T01:28:00;-2.00;99.90
7588;DHT22;3835;48.850;8.938;2024-01-15T01:30:26;-1.60;99.90
7588;DHT22;3835;48.850;8.938;2024-01-15T01:32:54;-2.00;99.90
7588;DHT22;3835;48.850;8.938;2024-01-15T01:35:22;-1.90;99.90
7588;DHT22;3835;48.850;8.938;2024-01-15T01:37:49;-1.90;99.90
7588;DHT22;3835;48.850;8.938;2024-01-15T01:40:16;-2.00;99.90
7588;DHT22;3835;48.850;8.938;2024-01-15T01:42:42;-1.90;99.90
7588;DHT22;3835;48.850;8.938;2024-01-15T01:45:09;-2.00;99.90
7588;DHT22;3835;48.850;8.938;2024-01-15T01:47:36;-2.10;99.90
7588;DHT22;3835;48.850;8.938;2024-01-15T01:50:05;-2.00;99.90
7588;DHT22;3835;48.850;8.938;2024-01-15T01:52:33;-2.00;99.90
7588;DHT22;3835;48.850;8.938;2024-01-15T01:55:02;-2.00;99.90
7588;DHT22;3835;48.850;8.938;2024-01-15T01:57:30;-2.20;99.90
7588;DHT22;3835;48.850;8.938;2024-01-15T01:59:58;-2.10;99.90
7588;DHT22;3835;48.850;8.938;2024-01-15T02:02:26;-2.20;99.90
7588;DHT22;3835;48.850;8.938;2024-01-15T02:04:52;-2.20;99.90
7588;DHT22;3835;48.850;8.938;2024-01-15T02:07:21;-2.20;99.90
7588;DHT22;3835;48.850;8.938;2024-01-15T02:09:48;-2.20;99.90
7588;DHT22;3835;48.850;8.938;2024-01-15T02:12:16;-2.20;99.90
7588;DHT22;3835;48.850;8.938;2024-01-15T02:14:43;-2.20;99.90
7588;DHT22;3835;48.850;8.938;2024-01-15T02:17:10;-2.20;99.90
7588;DHT22;3835;48.850;8.938;2024-01-15T02:19:36;-2.20;99.90
7588;DHT22;3835;48.850;8.938;2024-01-15T02:22:05;-2.20;99.90
7588;DHT22;3835;48.850;8.938;2024-01-15T02:24:33;-2.20;99.90
7588;DHT22;3835;48.850;8.938;2024-01-15T02:27:00;-2.20;99.90
7588;DHT22;3835;48.850;8.938;2024-01-15T02:29:27;-2.20;99.90
7588;DHT22;3835;48.850;8.938;2024-01-15T02:31:54;-2.10;99.90
7588;DHT22;3835;48.850;8.938;2024-01-15T02:34:21;-2.10;99.90
7588;DHT22;3835;48.850;8.938;2024-01-15T02:36:47;-2.00;99.90
7588;DHT22;3835;48.850;8.938;2024-01-15T02:39:14;-2.00;99.90
7588;DHT22;3835;48.850;8.938;2024-01-15T02:41:42;-2.00;99.90
7588;DHT22;3835;48.850;8.938;2024-01-15T02:44:09;-2.00;99.90
7588;DHT22;3835;48.850;8.938;2024-01-15T02:46:36;-2.00;99.90
7588;DHT22;3835;48.850;8.938;2024-01-15T02:49:03;-2.00;99.90
7588;DHT22;3835;48.850;8.938;2024-01-15T02:51:30;-2.00;99.90
7588;DHT22;3835;48.850;8.938;2024-01-15T02:53:56;-1.90;99.90
7588;DHT22;3835;48.850;8.938;2024-01-15T02:56:23;-1.90;99.90
7588;DHT22;3835;48.850;8.938;2024-01-15T02:58:51;-1.90;99.90
7588;DHT22;3835;48.850;8.938;2024-01-15T03:01:18;-2.00;99.90
7588;DHT22;3835;48.850;8.938;2024-01-15T03:03:46;-2.00;99.90
7588;DHT22;3835;48.850;8.938;2024-01-15T03:06:12;-1.90;99.90
7588;DHT22;3835;48.850;8.938;2024-01-15T03:08:39;-1.90;99.90
7588;DHT22;3835;48.850;8.938;2024-01-15T03:11:06;-1.90;99.90
7588;DHT22;3835;48.850;8.938;2024-01-15T03:13:35;-1.80;99.90
7588;DHT22;3835;48.850;8.938;2024-01-15T03:16:04;-1.70;99.90
7588;DHT22;3835;48.850;8.938;2024-01-15T03:18:31;-1.70;99.90
7588;DHT22;3835;48.850;8.938;2024-01-15T03:20:58;-1.70;99.90
7588;DHT22;3835;48.850;8.938;2024-01-15T03:23:26;-1.70;99.90
7588;DHT22;3835;48.850;8.938;2024-01-15T03:25:53;-1.60;99.90
7588;DHT22;3835;48.850;8.938;2024-01-15T03:28:20;-1.60;99.90
7588;DHT22;3835;48.850;8.938;2024-01-15T03:30:47;-1.60;99.90
7588;DHT22;3835;48.850;8.938;2024-01-15T03:33:15;-1.50;99.90
7588;DHT22;3835;48.850;8.938;2024-01-15T03:35:42;-1.50;99.90
7588;DHT22;3835;48.850;8.938;2024-01-15T03:38:09;-1.50;99.90
7588;DHT22;3835;48.850;8.938;2024-01-15T03:40:35;-1.50;99.90
7588;DHT22;3835;48.850;8.938;2024-01-15T03:43:02;-1.40;99.90
7588;DHT22;3835;48.850;8.938;2024-01-15T03:45:29;-1.50;99.90
7588;DHT22;3835;48.850;8.938;2024-01-15T03:47:56;-1.40;99.90
7588;DHT22;3835;48.850;8.938;2024-01-15T03:50:24;-1.40;99.90
7588;DHT22;3835;48.850;8.938;2024-01-15T03:52:51;-1.40;99.90
7588;DHT22;3835;48.850;8.938;2024-01-15T03:55:18;-1.40;99.90
7588;DHT22;3835;48.850;8.938;2024-01-15T03:57:45;-1.30;99.90
7588;DHT22;3835;48.850;8.938;2024-01-15T04:00:13;-1.40;99.90
7588;DHT22;3835;48.850;8.938;2024-01-15T04:02:42;-1.30;99.90
7588;DHT22;3835;48.850;8.938;2024-01-15T04:05:09;-1.30;99.90
7588;DHT22;3835;48.850;8.938;2024-01-15T04:07:37;-1.30;99.90
7588;DHT22;3835;48.850;8.938;2024-01-15T04:10:05;-0.80;99.90
7588;DHT22;3835;48.850;8.938;2024-01-15T04:12:32;-1.30;99.90
7588;DHT22;3835;48.850;8.938;2024-01-15T04:14:58;-1.30;99.90
7588;DHT22;3835;48.850;8.938;2024-01-15T04:17:27;-1.30;99.90
7588;DHT22;3835;48.850;8.938;2024-01-15T04:19:54;-1.30;99.90
7588;DHT22;3835;48.850;8.938;2024-01-15T04:22:21;-1.30;99.90
7588;DHT22;3835;48.850;8.938;2024-01-15T04:24:49;-1.30;99.90
7588;DHT22;3835;48.850;8.938;2024-01-15T04:27:16;-1.20;99.90
7588;DHT22;3835;48.850;8.938;2024-01-15T04:29:43;-1.30;99.90
7588;DHT22;3835;48.850;8.938;2024-01-15T04:32:11;-1.30;99.90
7588;DHT22;3835;48.850;8.938;2024-01-15T04:34:37;-1.20;99.90
7588;DHT22;3835;48.850;8.938;2024-01-15T04:37:04;-1.20;99.90
7588;DHT22;3835;48.850;8.938;2024-01-15T04:39:31;-1.20;99.90
7588;DHT22;3835;48.850;8.938;2024-01-15T04:42:00;-1.20;99.90
7588;DHT22;3835;48.850;8.938;2024-01-15T04:44:26;-1.20;99.90
7588;DHT22;3835;48.850;8.938;2024-01-15T04:46:53;-1.20;99.90
7588;DHT22;3835;48.850;8.938;2024-01-15T04:49:20;-1.20;99.90
7588;DHT22;3835;48.850;8.938;2024-01-15T04:51:47;-1.10;99.90
7588;DHT22;3835;48.850;8.938;2024-01-15T04:54:14;-1.20;99.90
7588;DHT22;3835;48.850;8.938;2024-01-15T04:56:43;-1.20;99.90
7588;DHT22;3835;48.850;8.938;2024-01-15T04:59:11;-1.20;99.90
7588;DHT22;3835;48.850;8.938;2024-01-15T05:01:38;-1.10;99.90
7588;DHT22;3835;48.850;8.938;2024-01-15T05:04:05;-1.20;99.90
7588;DHT22;3835;48.850;8.938;2024-01-15T05:06:32;-1.20;99.90
7588;DHT22;3835;48.850;8.938;2024-01-15T05:08:59;-1.20;99.90
7588;DHT22;3835;48.850;8.938;2024-01-15T05:11:26;-1.20;99.90
7588;DHT22;3835;48.850;8.938;2024-01-15T05:13:53;-1.20;99.90
7588;DHT22;3835;48.850;8.938;2024-01-15T05:16:21;-1.20;99.90
7588;DHT22;3835;48.850;8.938;2024-01-15T05:18:48;-1.20;99.90
7588;DHT22;3835;48.850;8.938;2024-01-15T05:21:15;-1.20;99.90
7588;DHT22;3835;48.850;8.938;2024-01-15T05:23:41;-1.20;99.90
7588;DHT22;3835;48.850;8.938;2024-01-15T05:26:08;-1.20;99.90
7588;DHT22;3835;48.850;8.938;2024-01-15T05:28:35;-1.10;99.90
7588;DHT22;3835;48.850;8.938;2024-01-15T05:31:02;-1.10;99.90
7588;DHT22;3835;48.850;8.938;2024-01-15T05:33:31;-1.10;99.90
7588;DHT22;3835;48.850;8.938;2024-01-15T05:35:57;-1.20;99.90
7588;DHT22;3835;48.850;8.938;2024-01-15T05:38:25;-1.00;99.90
7588;DHT22;3835;48.850;8.938;2024-01-15T05:40:51;-1.10;99.90
7588;DHT22;3835;48.850;8.938;2024-01-15T05:43:18;-1.10;99.90
7588;DHT22;3835;48.850;8.938;2024-01-15T05:45:45;-1.10;99.90
7588;DHT22;3835;48.850;8.938;2024-01-15T05:48:12;-1.10;99.90
7588;DHT22;3835;48.850;8.938;2024-01-15T05:50:41;-1.20;99.90
7588;DHT22;3835;48.850;8.938;2024-01-15T05:53:08;-1.10;99.90
7588;DHT22;3835;48.850;8.938;2024-01-15T05:55:36;-1.10;99.90
7588;DHT22;3835;48.850;8.938;2024-01-15T05:58:03;-1.10;99.90
7588;DHT22;3835;48.850;8.938;2024-01-15T06:00:30;-1.10;99.90
7588;DHT22;3835;48.850;8.938;2024-01-15T06:02:58;-1.00;99.90
7588;DHT22;3835;48.850;8.938;2024-01-15T06:05:25;-1.10;99.90
7588;DHT22;3835;48.850;8.938;2024-01-15T06:07:53;-1.10;99.90
7588;DHT22;3835;48.850;8.938;2024-01-15T06:10:20;-1.10;99.90
7588;DHT22;3835;48.850;8.938;2024-01-15T06:12:47;-1.10;99.90
7588;DHT22;3835;48.850;8.938;2024-01-15T06:15:14;-1.10;99.90
7588;DHT22;3835;48.850;8.938;2024-01-15T06:17:41;-1.10;99.90
7588;DHT22;3835;48.850;8.938;2024-01-15T06:20:08;-1.10;99.90
7588;DHT22;3835;48.850;8.938;2024-01-15T06:22:35;-1.10;99.90
7588;DHT22;3835;48.850;8.938;2024-01-15T06:25:06;-1.10;99.90
7588;DHT22;3835;48.850;8.938;2024-01-15T06:27:33;-1.10;99.90
7588;DHT22;3835;48.850;8.938;2024-01-15T06:30:00;-1.10;99.90
7588;DHT22;3835;48.850;8.938;2024-01-15T06:32:27;-1.10;99.90
7588;DHT22;3835;48.850;8.938;2024-01-15T06:34:54;-1.00;99.90
7588;DHT22;3835;48.850;8.938;2024-01-15T06:37:21;-1.00;99.90
7588;DHT22;3835;48.850;8.938;2024-01-15T06:39:48;-0.80;99.90
7588;DHT22;3835;48.850;8.938;2024-01-15T06:42:16;-1.10;99.90
7588;DHT22;3835;48.850;8.938;2024-01-15T06:44:43;-1.10;99.90
7588;DHT22;3835;48.850;8.938;2024-01-15T06:47:09;-1.10;99.90
7588;DHT22;3835;48.850;8.938;2024-01-15T06:49:36;-1.00;99.90
7588;DHT22;3835;48.850;8.938;2024-01-15T06:52:04;-1.10;99.90
7588;DHT22;3835;48.850;8.938;2024-01-15T06:54:31;-1.10;99.90
7588;DHT22;3835;48.850;8.938;2024-01-15T06:56:57;-1.00;99.90
7588;DHT22;3835;48.850;8.938;2024-01-15T06:59:25;-1.00;99.90
7588;DHT22;3835;48.850;8.938;2024-01-15T07:01:52;-1.00;99.90
7588;DHT22;3835;48.850;8.938;2024-01-15T07:04:20;-1.00;99.90
7588;DHT22;3835;48.850;8.938;2024-01-15T07:06:47;-1.00;99.90
7588;DHT22;3835;48.850;8.938;2024-01-15T07:09:14;-1.00;99.90
7588;DHT22;3835;48.850;8.938;2024-01-15T07:11:44;-1.00;99.90
7588;DHT22;3835;48.850;8.938;2024-01-15T07:14:12;-1.00;99.90
7588;DHT22;3835;48.850;8.938;2024-01-15T07:16:41;-1.00;99.90
7588;DHT22;3835;48.850;8.938;2024-01-15T07:19:07;-1.10;99.90
7588;DHT22;3835;48.850;8.938;2024-01-15T07:21:34;-1.00;99.90
7588;DHT22;3835;48.850;8.938;2024-01-15T07:24:01;-0.90;99.90
7588;DHT22;3835;48.850;8.938;2024-01-15T07:26:29;-1.10;99.90
7588;DHT22;3835;48.850;8.938;2024-01-15T07:28:56;-1.10;99.90
7588;DHT22;3835;48.850;8.938;2024-01-15T07:31:23;-1.00;99.90
7588;DHT22;3835;48.850;8.938;2024-01-15T07:33:51;-1.00;99.90
7588;DHT22;3835;48.850;8.938;2024-01-15T07:36:18;-1.00;99.90
7588;DHT22;3835;48.850;8.938;2024-01-15T07:38:45;-1.00;99.90
7588;DHT22;3835;48.850;8.938;2024-01-15T07:41:13;-1.00;99.90
7588;DHT22;3835;48.850;8.938;2024-01-15T07:43:40;-0.90;99.90
7588;DHT22;3835;48.850;8.938;2024-01-15T07:46:07;-0.90;99.90
7588;DHT22;3835;48.850;8.938;2024-01-15T07:48:33;-0.90;99.90
7588;DHT22;3835;48.850;8.938;2024-01-15T07:51:02;-0.90;99.90
7588;DHT22;3835;48.850;8.938;2024-01-15T07:53:29;-0.80;99.90
7588;DHT22;3835;48.850;8.938;2024-01-15T07:55:56;-0.30;99.90
7588;DHT22;3835;48.850;8.938;2024-01-15T07:58:24;-0.50;99.90
7588;DHT22;3835;48.850;8.938;2024-01-15T08:00:51;-0.80;99.90
7588;DHT22;3835;48.850;8.938;2024-01-15T08:03:18;-0.70;99.90
7588;DHT22;3835;48.850;8.938;2024-01-15T08:05:45;-0.70;99.90
7588;DHT22;3835;48.850;8.938;2024-01-15T08:08:13;-0.60;99.90
7588;DHT22;3835;48.850;8.938;2024-01-15T08:10:40;-0.60;99.90
7588;DHT22;3835;48.850;8.938;2024-01-15T08:13:07;-0.60;99.90
7588;DHT22;3835;48.850;8.938;2024-01-15T08:15:34;-0.50;99.90
7588;DHT22;3835;48.850;8.938;2024-01-15T08:18:01;0.00;99.90
7588;DHT22;3835;48.850;8.938;2024-01-15T08:20:28;-0.50;99.90
7588;DHT22;3835;48.850;8.938;2024-01-15T08:22:56;-0.40;99.90
7588;DHT22;3835;48.850;8.938;2024-01-15T08:25:32;-0.40;99.90
7588;DHT22;3835;48.850;8.938;2024-01-15T08:28:01;-0.30;99.90
7588;DHT22;3835;48.850;8.938;2024-01-15T08:30:28;-0.30;99.90
7588;DHT22;3835;48.850;8.938;2024-01-15T08:32:55;0.20;99.90
7588;DHT22;3835;48.850;8.938;2024-01-15T08:35:22;-0.10;99.90
7588;DHT22;3835;48.850;8.938;2024-01-15T08:37:50;0.50;99.90
7588;DHT22;3835;48.850;8.938;2024-01-15T08:40:17;0.00;99.90
7588;DHT22;3835;48.850;8.938;2024-01-15T08:42:46;0.10;99.90
7588;DHT22;3835;48.850;8.938;2024-01-15T08:45:13;0.10;99.90
7588;DHT22;3835;48.850;8.938;2024-01-15T08:47:40;0.10;99.90
7588;DHT22;3835;48.850;8.938;2024-01-15T08:50:07;0.20;99.90
7588;DHT22;3835;48.850;8.938;2024-01-15T08:52:36;0.20;99.90
7588;DHT22;3835;48.850;8.938;2024-01-15T08:55:03;0.70;99.90
7588;DHT22;3835;48.850;8.938;2024-01-15T08:57:31;0.30;99.90
7588;DHT22;3835;48.850;8.938;2024-01-15T08:59:59;0.30;99.90
7588;DHT22;3835;48.850;8.938;2024-01-15T09:02:26;0.30;99.90
7588;DHT22;3835;48.850;8.938;2024-01-15T09:04:52;0.70;99.90
7588;DHT22;3835;48.850;8.938;2024-01-15T09:07:19;0.50;99.90
7588;DHT22;3835;48.850;8.938;2024-01-15T09:09:46;0.40;99.90
7588;DHT22;3835;48.850;8.938;2024-01-15T09:12:13;1.20;99.90
7588;DHT22;3835;48.850;8.938;2024-01-15T09:14:41;0.80;99.90
7588;DHT22;3835;48.850;8.938;2024-01-15T09:17:09;0.90;99.90
7588;DHT22;3835;48.850;8.938;2024-01-15T09:19:36;0.70;99.90
7588;DHT22;3835;48.850;8.938;2024-01-15T09:22:04;0.70;99.90
7588;DHT22;3835;48.850;8.938;2024-01-15T09:24:31;0.70;99.90
7588;DHT22;3835;48.850;8.938;2024-01-15T09:26:58;1.20;99.90
7588;DHT22;3835;48.850;8.938;2024-01-15T09:29:25;1.30;99.90
7588;DHT22;3835;48.850;8.938;2024-01-15T09:31:52;1.10;99.90
7588;DHT22;3835;48.850;8.938;2024-01-15T09:34:20;1.10;99.90
7588;DHT22;3835;48.850;8.938;2024-01-15T09:36:48;0.70;99.90
7588;DHT22;3835;48.850;8.938;2024-01-15T09:39:15;1.20;99.90
7588;DHT22;3835;48.850;8.938;2024-01-15T09:41:42;0.80;99.90
7588;DHT22;3835;48.850;8.938;2024-01-15T09:44:10;0.70;99.90
7588;DHT22;3835;48.850;8.938;2024-01-15T09:46:38;1.10;99.90
7588;DHT22;3835;48.850;8.938;2024-01-15T09:49:05;1.20;99.90
7588;DHT22;3835;48.850;8.938;2024-01-15T09:51:34;0.90;99.90
7588;DHT22;3835;48.850;8.938;2024-01-15T09:54:05;1.10;99.90
7588;DHT22;3835;48.850;8.938;2024-01-15T09:56:35;0.90;99.90
7588;DHT22;3835;48.850;8.938;2024-01-15T09:59:02;1.30;99.90
7588;DHT22;3835;48.850;8.938;2024-01-15T10:01:31;0.90;99.90
7588;DHT22;3835;48.850;8.938;2024-01-15T10:03:59;1.10;99.90
7588;DHT22;3835;48.850;8.938;2024-01-15T10:06:27;1.30;99.90
7588;DHT22;3835;48.850;8.938;2024-01-15T10:08:57;0.80;99.90
7588;DHT22;3835;48.850;8.938;2024-01-15T10:11:25;1.10;99.90
7588;DHT22;3835;48.850;8.938;2024-01-15T10:13:52;1.20;99.90
7588;DHT22;3835;48.850;8.938;2024-01-15T10:16:20;1.20;99.90
7588;DHT22;3835;48.850;8.938;2024-01-15T10:18:48;0.90;99.90
7588;DHT22;3835;48.850;8.938;2024-01-15T10:21:15;1.20;99.90
7588;DHT22;3835;48.850;8.938;2024-01-15T10:23:42;0.90;99.90
7588;DHT22;3835;48.850;8.938;2024-01-15T10:26:11;0.60;99.90
7588;DHT22;3835;48.850;8.938;2024-01-15T10:28:38;0.60;99.90
7588;DHT22;3835;48.850;8.938;2024-01-15T10:31:10;0.70;99.90
7588;DHT22;3835;48.850;8.938;2024-01-15T10:33:48;0.60;99.90
7588;DHT22;3835;48.850;8.938;2024-01-15T10:36:16;0.60;99.90
7588;DHT22;3835;48.850;8.938;2024-01-15T10:38:43;0.60;99.90
7588;DHT22;3835;48.850;8.938;2024-01-15T10:41:11;0.50;99.90
7588;DHT22;3835;48.850;8.938;2024-01-15T10:43:38;0.50;99.90
7588;DHT22;3835;48.850;8.938;2024-01-15T10:46:07;0.50;99.90
7588;DHT22;3835;48.850;8.938;2024-01-15T10:48:34;0.50;99.90
7588;DHT22;3835;48.850;8.938;2024-01-15T10:51:02;1.00;99.90
7588;DHT22;3835;48.850;8.938;2024-01-15T10:53:37;0.60;99.90
7588;DHT22;3835;48.850;8.938;2024-01-15T10:56:05;0.70;99.90
7588;DHT22;3835;48.850;8.938;2024-01-15T10:58:35;0.70;99.90
7588;DHT22;3835;48.850;8.938;2024-01-15T11:01:04;0.80;99.90
7588;DHT22;3835;48.850;8.938;2024-01-15T11:03:31;0.70;99.90
7588;DHT22;3835;48.850;8.938;2024-01-15T11:06:28;0.50;99.90
7588;DHT22;3835;48.850;8.938;2024-01-15T11:09:07;0.30;99.90
7588;DHT22;3835;48.850;8.938;2024-01-15T11:11:35;0.90;99.90
7588;DHT22;3835;48.850;8.938;2024-01-15T11:14:04;0.20;99.90
7588;DHT22;3835;48.850;8.938;2024-01-15T11:16:53;0.60;99.90
7588;DHT22;3835;48.850;8.938;2024-01-15T11:19:20;0.20;99.90
7588;DHT22;3835;48.850;8.938;2024-01-15T11:21:47;0.20;99.90
7588;DHT22;3835;48.850;8.938;2024-01-15T11:24:34;0.50;99.90
7588;DHT22;3835;48.850;8.938;2024-01-15T11:27:01;0.90;99.90
7588;DHT22;3835;48.850;8.938;2024-01-15T11:29:31;1.50;99.90
7588;DHT22;3835;48.850;8.938;2024-01-15T11:32:01;2.20;99.90
7588;DHT22;3835;48.850;8.938;2024-01-15T11:34:53;2.00;99.90
7588;DHT22;3835;48.850;8.938;2024-01-15T11:37:20;1.10;99.90
7588;DHT22;3835;48.850;8.938;2024-01-15T11:39:51;1.20;99.90
7588;DHT22;3835;48.850;8.938;2024-01-15T11:42:20;0.50;99.90
7588;DHT22;3835;48.850;8.938;2024-01-15T11:44:49;0.30;99.90
7588;DHT22;3835;48.850;8.938;2024-01-15T11:47:30;0.50;99.90
7588;DHT22;3835;48.850;8.938;2024-01-15T11:50:04;0.80;99.90
7588;DHT22;3835;48.850;8.938;2024-01-15T11:52:33;0.20;99.90
7588;DHT22;3835;48.850;8.938;2024-01-15T11:55:05;0.70;99.90
7588;DHT22;3835;48.850;8.938;2024-01-15T11:57:41;0.20;99.90
7588;DHT22;3835;48.850;8.938;2024-01-15T12:00:12;0.50;99.90
7588;DHT22;3835;48.850;8.938;2024-01-15T12:02:40;0.10;99.90
7588;DHT22;3835;48.850;8.938;2024-01-15T12:05:08;0.10;99.90
7588;DHT22;3835;48.850;8.938;2024-01-15T12:07:35;0.10;99.90
7588;DHT22;3835;48.850;8.938;2024-01-15T12:10:02;0.10;99.90
7588;DHT22;3835;48.850;8.938;2024-01-15T12:12:42;0.70;99.90
7588;DHT22;3835;48.850;8.938;2024-01-15T12:15:12;0.70;99.90
7588;DHT22;3835;48.850;8.938;2024-01-15T12:17:40;0.20;99.90
7588;DHT22;3835;48.850;8.938;2024-01-15T12:20:08;0.20;99.90
7588;DHT22;3835;48.850;8.938;2024-01-15T12:22:35;0.20;99.90
7588;DHT22;3835;48.850;8.938;2024-01-15T12:25:02;0.30;99.90
7588;DHT22;3835;48.850;8.938;2024-01-15T12:27:29;0.40;99.90
7588;DHT22;3835;48.850;8.938;2024-01-15T12:29:57;0.90;99.90
7588;DHT22;3835;48.850;8.938;2024-01-15T12:32:25;0.60;99.90
7588;DHT22;3835;48.850;8.938;2024-01-15T12:34:52;0.50;99.90
7588;DHT22;3835;48.850;8.938;2024-01-15T12:37:19;0.40;99.90
7588;DHT22;3835;48.850;8.938;2024-01-15T12:39:46;0.40;99.90
7588;DHT22;3835;48.850;8.938;2024-01-15T12:42:14;1.30;99.90
7588;DHT22;3835;48.850;8.938;2024-01-15T12:44:42;0.80;99.90
7588;DHT22;3835;48.850;8.938;2024-01-15T12:47:09;1.30;99.90
7588;DHT22;3835;48.850;8.938;2024-01-15T12:49:38;1.00;99.90
7588;DHT22;3835;48.850;8.938;2024-01-15T12:52:08;0.80;99.90
7588;DHT22;3835;48.850;8.938;2024-01-15T12:54:35;0.50;99.90
7588;DHT22;3835;48.850;8.938;2024-01-15T12:57:03;0.80;99.90
7588;DHT22;3835;48.850;8.938;2024-01-15T12:59:30;0.40;99.90
7588;DHT22;3835;48.850;8.938;2024-01-15T13:01:56;0.40;99.90
7588;DHT22;3835;48.850;8.938;2024-01-15T13:04:24;0.40;99.90
7588;DHT22;3835;48.850;8.938;2024-01-15T13:06:52;0.90;99.90
7588;DHT22;3835;48.850;8.938;2024-01-15T13:09:19;0.40;99.90
7588;DHT22;3835;48.850;8.938;2024-01-15T13:11:46;1.20;99.90
7588;DHT22;3835;48.850;8.938;2024-01-15T13:14:13;0.80;99.90
7588;DHT22;3835;48.850;8.938;2024-01-15T13:16:41;0.80;99.90
7588;DHT22;3835;48.850;8.938;2024-01-15T13:19:08;0.40;99.90
7588;DHT22;3835;48.850;8.938;2024-01-15T13:21:37;0.50;99.90
7588;DHT22;3835;48.850;8.938;2024-01-15T13:24:05;0.30;99.90
7588;DHT22;3835;48.850;8.938;2024-01-15T13:26:32;0.20;99.90
7588;DHT22;3835;48.850;8.938;2024-01-15T13:29:00;0.30;99.90
7588;DHT22;3835;48.850;8.938;2024-01-15T13:31:27;-0.10;99.90
7588;DHT22;3835;48.850;8.938;2024-01-15T13:33:54;0.30;99.90
7588;DHT22;3835;48.850;8.938;2024-01-15T13:36:21;1.20;99.90
7588;DHT22;3835;48.850;8.938;2024-01-15T13:38:49;0.70;99.90
7588;DHT22;3835;48.850;8.938;2024-01-15T13:41:17;0.90;99.90
7588;DHT22;3835;48.850;8.938;2024-01-15T13:43:49;0.40;99.90
7588;DHT22;3835;48.850;8.938;2024-01-15T13:46:16;0.30;99.90
7588;DHT22;3835;48.850;8.938;2024-01-15T13:48:42;0.30;99.90
7588;DHT22;3835;48.850;8.938;2024-01-15T13:51:09;0.30;99.90
7588;DHT22;3835;48.850;8.938;2024-01-15T13:53:37;0.40;99.90
7588;DHT22;3835;48.850;8.938;2024-01-15T13:56:05;0.40;99.90
7588;DHT22;3835;48.850;8.938;2024-01-15T13:58:35;0.30;99.90
7588;DHT22;3835;48.850;8.938;2024-01-15T14:01:02;0.20;99.90
7588;DHT22;3835;48.850;8.938;2024-01-15T14:03:30;0.20;99.90
7588;DHT22;3835;48.850;8.938;2024-01-15T14:05:56;0.20;99.90
7588;DHT22;3835;48.850;8.938;2024-01-15T14:08:23;0.20;99.90
7588;DHT22;3835;48.850;8.938;2024-01-15T14:10:51;0.10;99.90
7588;DHT22;3835;48.850;8.938;2024-01-15T14:13:17;0.20;99.90
7588;DHT22;3835;48.850;8.938;2024-01-15T14:15:46;0.20;99.90
7588;DHT22;3835;48.850;8.938;2024-01-15T14:18:14;0.20;99.90
7588;DHT22;3835;48.850;8.938;2024-01-15T14:20:41;0.20;99.90
7588;DHT22;3835;48.850;8.938;2024-01-15T14:23:08;0.20;99.90
7588;DHT22;3835;48.850;8.938;2024-01-15T14:25:35;0.10;99.90
7588;DHT22;3835;48.850;8.938;2024-01-15T14:28:02;-0.10;99.90
7588;DHT22;3835;48.850;8.938;2024-01-15T14:30:29;-0.20;99.90
7588;DHT22;3835;48.850;8.938;2024-01-15T14:32:57;-0.30;99.90
7588;DHT22;3835;48.850;8.938;2024-01-15T14:35:24;-0.40;99.90
7588;DHT22;3835;48.850;8.938;2024-01-15T14:37:51;-0.40;99.90
7588;DHT22;3835;48.850;8.938;2024-01-15T14:40:18;-0.50;99.90
7588;DHT22;3835;48.850;8.938;2024-01-15T14:42:45;-0.50;99.90
7588;DHT22;3835;48.850;8.938;2024-01-15T14:45:12;-0.50;99.90
7588;DHT22;3835;48.850;8.938;2024-01-15T14:47:38;-0.40;99.90
7588;DHT22;3835;48.850;8.938;2024-01-15T14:50:08;-0.40;99.90
7588;DHT22;3835;48.850;8.938;2024-01-15T14:52:35;-0.40;99.90
7588;DHT22;3835;48.850;8.938;2024-01-15T14:55:03;-0.40;99.90
7588;DHT22;3835;48.850;8.938;2024-01-15T14:57:30;-0.30;99.90
7588;DHT22;3835;48.850;8.938;2024-01-15T14:59:57;-0.30;99.90
7588;DHT22;3835;48.850;8.938;2024-01-15T15:02:24;-0.40;99.90
7588;DHT22;3835;48.850;8.938;2024-01-15T15:04:53;-0.40;99.90
7588;DHT22;3835;48.850;8.938;2024-01-15T15:07:22;-0.30;99.90
7588;DHT22;3835;48.850;8.938;2024-01-15T15:09:49;-0.30;99.90
7588;DHT22;3835;48.850;8.938;2024-01-15T15:12:17;-0.30;99.90
7588;DHT22;3835;48.850;8.938;2024-01-15T15:14:44;-0.30;99.90
7588;DHT22;3835;48.850;8.938;2024-01-15T15:17:11;-0.30;99.90
7588;DHT22;3835;48.850;8.938;2024-01-15T15:19:38;-0.40;99.90
7588;DHT22;3835;48.850;8.938;2024-01-15T15:22:06;-0.40;99.90
7588;DHT22;3835;48.850;8.938;2024-01-15T15:24:36;-0.40;99.90
7588;DHT22;3835;48.850;8.938;2024-01-15T15:27:03;-0.40;99.90
7588;DHT22;3835;48.850;8.938;2024-01-15T15:29:31;-0.40;99.90
7588;DHT22;3835;48.850;8.938;2024-01-15T15:31:57;-0.40;99.90
7588;DHT22;3835;48.850;8.938;2024-01-15T15:34:24;-0.50;99.90
7588;DHT22;3835;48.850;8.938;2024-01-15T15:36:51;-0.50;99.90
7588;DHT22;3835;48.850;8.938;2024-01-15T15:39:18;-0.50;99.90
7588;DHT22;3835;48.850;8.938;2024-01-15T15:41:46;-0.50;99.90
7588;DHT22;3835;48.850;8.938;2024-01-15T15:44:14;-0.50;99.90
7588;DHT22;3835;48.850;8.938;2024-01-15T15:46:42;-0.60;99.90
7588;DHT22;3835;48.850;8.938;2024-01-15T15:49:09;-0.60;99.90
7588;DHT22;3835;48.850;8.938;2024-01-15T15:51:36;-0.60;99.90
7588;DHT22;3835;48.850;8.938;2024-01-15T15:54:03;-0.70;99.90
7588;DHT22;3835;48.850;8.938;2024-01-15T15:56:31;-0.60;99.90
7588;DHT22;3835;48.850;8.938;2024-01-15T15:59:02;-0.70;99.90
7588;DHT22;3835;48.850;8.938;2024-01-15T16:01:29;-0.70;99.90
7588;DHT22;3835;48.850;8.938;2024-01-15T16:03:56;-0.70;99.90
7588;DHT22;3835;48.850;8.938;2024-01-15T16:06:23;-0.70;99.90
7588;DHT22;3835;48.850;8.938;2024-01-15T16:08:49;-0.70;99.90
7588;DHT22;3835;48.850;8.938;2024-01-15T16:11:16;-0.70;99.90